Weather at Kastoria National Airport Aristotle

Public forecast

Using degrees Celsius for public forecast. Weather courtesy of forecast.io.

Closest aviation weather report (METAR) to Kastoria National Airport Aristotle

Closest report is Kozani National Airport Filippos, 27.3 nm (50.6 km) ESE.

2024/05/26 17:20 (retrieved 29 minutes ago)

LGKZ 261720Z AUTO VRB03KT //// // ////// 18/05 Q1017 RE//

Closest aviation forecast (TAF) to Kastoria National Airport Aristotle

Closest forecast is Ohrid St. Paul the Apostle Airport, 50.4 nm (93.4 km) NNW.

2024/05/26 15:44 (retrieved 2 hours ago)

TAF LWOH 261435Z 2615/2715 32006KT 9999 SCT050 PROB40 TEMPO 2615/2620 VRB15KT TSRA SCT033CB OVC040